createdAt,value
2022-10-07T00:00:43.264Z,95.62
2022-10-07T00:01:43.291Z,94.90
2022-10-07T00:02:43.356Z,95.01
2022-10-07T00:03:43.188Z,94.80
2022-10-07T00:04:43.174Z,94.80
2022-10-07T00:05:43.177Z,94.76
2022-10-07T00:06:43.188Z,95.01
2022-10-07T00:07:43.410Z,94.96
2022-10-07T00:08:43.136Z,94.49
2022-10-07T00:09:43.157Z,94.29
2022-10-07T00:10:43.111Z,94.49
2022-10-07T00:11:43.114Z,93.67
2022-10-07T00:12:43.184Z,94.80
2022-10-07T00:13:43.080Z,94.70
2022-10-07T00:14:43.072Z,94.70
2022-10-07T00:15:43.058Z,94.49
2022-10-07T00:16:43.345Z,94.49
2022-10-07T00:17:43.558Z,94.80
2022-10-07T00:18:43.039Z,94.08
2022-10-07T00:19:43.014Z,93.98
2022-10-07T00:20:43.005Z,93.67
2022-10-07T00:21:43.009Z,93.82
2022-10-07T00:22:43.005Z,93.92
2022-10-07T00:23:42.972Z,94.39
2022-10-07T00:24:42.994Z,94.90
2022-10-07T00:25:42.949Z,94.70
2022-10-07T00:26:42.947Z,94.70
2022-10-07T00:27:43.194Z,94.18
2022-10-07T00:28:43.113Z,94.29
2022-10-07T00:29:42.911Z,93.57
2022-10-07T00:30:43.006Z,93.46
2022-10-07T00:31:42.888Z,94.08
2022-10-07T00:32:42.879Z,93.98
2022-10-07T00:33:42.872Z,94.18
2022-10-07T00:34:42.901Z,94.14
2022-10-07T00:35:42.847Z,94.39
2022-10-07T00:36:42.831Z,94.29
2022-10-07T00:37:43.370Z,94.18
2022-10-07T00:38:42.836Z,94.49
2022-10-07T00:39:42.804Z,94.08
2022-10-07T00:40:42.802Z,94.18
2022-10-07T00:41:42.781Z,93.98
2022-10-07T00:42:42.816Z,93.77
2022-10-07T00:43:42.756Z,93.77
2022-10-07T00:44:42.745Z,94.08
2022-10-07T00:45:42.821Z,93.67
2022-10-07T00:46:42.725Z,93.87
2022-10-07T00:47:43.062Z,93.05
2022-10-07T00:48:42.709Z,93.01
2022-10-07T00:49:42.719Z,93.16
2022-10-07T00:50:42.682Z,93.05
2022-10-07T00:51:42.681Z,93.46
2022-10-07T00:52:42.656Z,93.16
2022-10-07T00:53:42.645Z,93.26
2022-10-07T00:54:42.699Z,94.08
2022-10-07T00:55:42.631Z,93.67
2022-10-07T00:56:42.628Z,94.18
2022-10-07T00:57:42.920Z,93.87
2022-10-07T00:58:42.594Z,93.67
2022-10-07T00:59:42.587Z,93.77
2022-10-07T01:00:42.656Z,93.36
2022-10-07T01:01:42.596Z,93.77
2022-10-07T01:02:42.719Z,94.18
2022-10-07T01:03:42.546Z,93.98
2022-10-07T01:04:42.527Z,93.67
2022-10-07T01:05:42.521Z,93.87
2022-10-07T01:06:42.520Z,93.57
2022-10-07T01:07:42.847Z,93.98
2022-10-07T01:08:42.505Z,94.08
2022-10-07T01:09:42.480Z,93.93
2022-10-07T01:10:42.487Z,93.77
2022-10-07T01:11:42.467Z,93.87
2022-10-07T01:12:42.491Z,93.05
2022-10-07T01:13:42.441Z,92.70
2022-10-07T01:14:42.416Z,92.74
2022-10-07T01:15:42.453Z,92.54
2022-10-07T01:16:42.450Z,92.74
2022-10-07T01:17:42.590Z,92.85
2022-10-07T01:18:42.452Z,92.74
2022-10-07T01:19:42.363Z,93.05
2022-10-07T01:20:42.362Z,92.64
2022-10-07T01:21:42.344Z,92.85
2022-10-07T01:22:42.338Z,92.74
2022-10-07T01:23:42.330Z,92.40
2022-10-07T01:24:42.367Z,92.85
2022-10-07T01:25:42.302Z,92.91
2022-10-07T01:26:42.326Z,92.64
2022-10-07T01:27:42.634Z,93.05
2022-10-07T01:28:42.380Z,92.54
2022-10-07T01:29:42.256Z,92.13
2022-10-07T01:30:42.396Z,91.57
2022-10-07T01:31:42.248Z,92.13
2022-10-07T01:32:42.229Z,91.99
2022-10-07T01:33:42.216Z,91.72
2022-10-07T01:34:42.213Z,92.23
2022-10-07T01:35:42.193Z,92.44
2022-10-07T01:36:42.258Z,92.64
2022-10-07T01:37:42.528Z,92.13
2022-10-07T01:38:42.168Z,91.93
2022-10-07T01:39:42.149Z,92.03
2022-10-07T01:40:42.140Z,92.13
2022-10-07T01:41:42.127Z,91.67
2022-10-07T01:42:42.202Z,91.82
2022-10-07T01:43:42.105Z,92.74
2022-10-07T01:44:42.097Z,92.74
2022-10-07T01:45:42.083Z,92.60
2022-10-07T01:46:42.082Z,92.44
2022-10-07T01:47:42.389Z,92.54
2022-10-07T01:48:42.117Z,92.54
2022-10-07T01:49:42.037Z,92.40
2022-10-07T01:50:42.028Z,92.60
2022-10-07T01:51:42.017Z,92.54
2022-10-07T01:52:42.020Z,92.64
2022-10-07T01:53:42.005Z,92.58
2022-10-07T01:54:41.998Z,91.61
2022-10-07T01:55:41.974Z,92.03
2022-10-07T01:56:41.967Z,92.23
2022-10-07T01:57:42.373Z,92.54
2022-10-07T01:58:41.967Z,92.64
2022-10-07T01:59:41.931Z,92.44
2022-10-07T02:00:42.009Z,91.72
2022-10-07T02:01:41.947Z,92.23
2022-10-07T02:02:41.898Z,92.13
2022-10-07T02:03:41.949Z,91.61
2022-10-07T02:04:41.876Z,91.10
2022-10-07T02:05:41.868Z,91.31
2022-10-07T02:06:41.909Z,92.03
2022-10-07T02:07:42.083Z,92.03
2022-10-07T02:08:41.830Z,92.33
2022-10-07T02:09:41.833Z,91.93
2022-10-07T02:10:41.814Z,92.03
2022-10-07T02:11:41.798Z,91.82
2022-10-07T02:12:41.832Z,91.61
2022-10-07T02:13:41.782Z,91.61
2022-10-07T02:14:41.905Z,91.41
2022-10-07T02:15:41.832Z,91.93
2022-10-07T02:16:41.746Z,91.82
2022-10-07T02:17:42.131Z,91.93
2022-10-07T02:18:41.779Z,91.31
2022-10-07T02:19:41.710Z,91.00
2022-10-07T02:20:41.715Z,91.41
2022-10-07T02:21:41.693Z,91.14
2022-10-07T02:22:41.685Z,90.48
2022-10-07T02:23:41.686Z,90.48
2022-10-07T02:24:41.695Z,89.91
2022-10-07T02:25:41.647Z,89.81
2022-10-07T02:26:41.641Z,89.97
2022-10-07T02:27:42.044Z,90.08
2022-10-07T02:28:41.679Z,90.08
2022-10-07T02:29:41.615Z,90.48
2022-10-07T02:30:41.714Z,89.60
2022-10-07T02:31:41.588Z,90.28
2022-10-07T02:32:41.577Z,89.70
2022-10-07T02:33:41.567Z,89.15
2022-10-07T02:34:41.564Z,89.25
2022-10-07T02:35:41.540Z,89.19
2022-10-07T02:36:41.587Z,89.04
2022-10-07T02:37:41.864Z,89.15
2022-10-07T02:38:41.531Z,89.04
2022-10-07T02:39:41.500Z,89.46
2022-10-07T02:40:41.494Z,89.15
2022-10-07T02:41:41.488Z,89.36
2022-10-07T02:42:41.547Z,89.25
2022-10-07T02:43:41.451Z,89.15
2022-10-07T02:44:41.441Z,89.04
2022-10-07T02:45:41.435Z,88.74
2022-10-07T02:46:41.490Z,88.74
2022-10-07T02:47:41.645Z,88.53
2022-10-07T02:48:41.473Z,88.95
2022-10-07T02:49:41.387Z,89.04
2022-10-07T02:50:41.386Z,89.46
2022-10-07T02:51:41.372Z,88.70
2022-10-07T02:52:41.355Z,88.95
2022-10-07T02:53:41.345Z,88.84
2022-10-07T02:54:41.443Z,89.15
2022-10-07T02:55:41.323Z,89.04
2022-10-07T02:56:41.313Z,89.76
2022-10-07T02:57:41.464Z,88.53
2022-10-07T02:58:41.396Z,88.43
2022-10-07T02:59:41.277Z,88.33
2022-10-07T03:00:41.313Z,88.43
2022-10-07T03:01:41.353Z,88.74
2022-10-07T03:02:41.306Z,88.33
2022-10-07T03:03:41.316Z,88.84
2022-10-07T03:04:41.238Z,88.95
2022-10-07T03:05:41.214Z,89.04
2022-10-07T03:06:41.269Z,89.01
2022-10-07T03:07:41.534Z,88.95
2022-10-07T03:08:41.194Z,89.01
2022-10-07T03:09:41.173Z,88.64
2022-10-07T03:10:41.159Z,88.90
2022-10-07T03:11:41.145Z,88.95
2022-10-07T03:12:41.177Z,89.46
2022-10-07T03:13:41.138Z,89.36
2022-10-07T03:14:41.126Z,89.46
2022-10-07T03:15:42.548Z,89.36
2022-10-07T03:16:41.094Z,89.56
2022-10-07T03:17:41.159Z,88.98
2022-10-07T03:18:41.133Z,88.98
2022-10-07T03:19:41.073Z,88.68
2022-10-07T03:20:41.051Z,89.25
2022-10-07T03:21:41.041Z,88.95
2022-10-07T03:22:41.031Z,87.82
2022-10-07T03:23:41.014Z,87.61
2022-10-07T03:24:41.214Z,87.82
2022-10-07T03:25:40.993Z,86.89
2022-10-07T03:26:40.984Z,86.75
2022-10-07T03:27:41.126Z,87.82
2022-10-07T03:28:41.039Z,87.61
2022-10-07T03:29:41.017Z,87.10
2022-10-07T03:30:41.039Z,87.20
2022-10-07T03:31:41.043Z,86.79
2022-10-07T03:32:40.922Z,86.89
2022-10-07T03:33:40.907Z,87.40
2022-10-07T03:34:40.924Z,87.40
2022-10-07T03:35:40.886Z,87.51
2022-10-07T03:36:40.908Z,88.02
2022-10-07T03:37:40.868Z,88.37
2022-10-07T03:38:40.866Z,87.92
2022-10-07T03:39:40.844Z,87.61
2022-10-07T03:40:40.831Z,86.99
2022-10-07T03:41:40.822Z,85.97
2022-10-07T03:42:40.903Z,86.17
2022-10-07T03:43:40.801Z,86.68
2022-10-07T03:44:40.798Z,87.20
2022-10-07T03:45:40.778Z,87.10
2022-10-07T03:46:40.870Z,88.12
2022-10-07T03:47:40.857Z,87.20
2022-10-07T03:48:40.815Z,87.20
2022-10-07T03:49:40.734Z,86.07
2022-10-07T03:50:40.744Z,87.40
2022-10-07T03:51:40.712Z,86.38
2022-10-07T03:52:40.700Z,86.17
2022-10-07T03:53:40.739Z,86.79
2022-10-07T03:54:40.754Z,86.58
2022-10-07T03:55:40.672Z,86.79
2022-10-07T03:56:40.658Z,87.24
2022-10-07T03:57:40.647Z,87.13
2022-10-07T03:58:40.637Z,87.34
2022-10-07T03:59:40.637Z,87.13
2022-10-07T04:00:40.678Z,86.58
2022-10-07T04:01:40.678Z,86.58
2022-10-07T04:02:40.645Z,86.52
2022-10-07T04:03:40.592Z,85.97
2022-10-07T04:04:40.583Z,86.48
2022-10-07T04:05:40.560Z,85.76
2022-10-07T04:06:40.619Z,86.17
2022-10-07T04:07:40.539Z,85.86
2022-10-07T04:08:40.528Z,86.17
2022-10-07T04:09:40.523Z,86.17
2022-10-07T04:10:40.516Z,85.97
2022-10-07T04:11:40.534Z,85.76
2022-10-07T04:12:40.549Z,86.07
2022-10-07T04:13:40.479Z,85.80
2022-10-07T04:14:40.466Z,86.62
2022-10-07T04:15:40.448Z,86.72
2022-10-07T04:16:40.794Z,86.00
2022-10-07T04:17:40.439Z,85.97
2022-10-07T04:18:40.462Z,85.28
2022-10-07T04:19:40.410Z,86.07
2022-10-07T04:20:40.397Z,85.39
2022-10-07T04:21:40.384Z,85.04
2022-10-07T04:22:40.413Z,84.77
2022-10-07T04:23:40.363Z,84.74
2022-10-07T04:24:40.380Z,84.32
2022-10-07T04:25:40.339Z,84.01
2022-10-07T04:26:40.330Z,84.42
2022-10-07T04:27:51.491Z,84.84
2022-10-07T04:28:41.421Z,85.04
2022-10-07T04:29:40.297Z,85.35
2022-10-07T04:30:40.339Z,86.48
2022-10-07T04:31:40.376Z,85.90
2022-10-07T04:32:40.267Z,86.07
2022-10-07T04:33:40.255Z,85.25
2022-10-07T04:34:40.257Z,85.25
2022-10-07T04:35:40.232Z,85.25
2022-10-07T04:36:40.278Z,84.63
2022-10-07T04:37:40.215Z,84.53
2022-10-07T04:38:40.227Z,84.32
2022-10-07T04:39:59.775Z,84.74
2022-10-07T04:40:41.188Z,84.74
2022-10-07T04:41:40.169Z,84.63
2022-10-07T04:42:40.241Z,84.53
2022-10-07T04:43:40.160Z,84.74
2022-10-07T04:44:40.141Z,84.84
2022-10-07T04:45:40.130Z,85.35
2022-10-07T04:46:40.214Z,84.94
2022-10-07T04:47:40.103Z,84.84
2022-10-07T04:48:40.231Z,85.14
2022-10-07T04:49:40.085Z,84.53
2022-10-07T04:50:40.070Z,84.63
2022-10-07T04:51:40.067Z,84.63
2022-10-07T04:52:40.050Z,84.53
2022-10-07T04:53:40.038Z,84.74
2022-10-07T04:54:40.081Z,84.42
2022-10-07T04:55:40.045Z,83.81
2022-10-07T04:56:40.032Z,84.53
2022-10-07T04:57:39.996Z,84.53
2022-10-07T04:58:39.990Z,84.53
2022-10-07T04:59:42.788Z,85.04
2022-10-07T05:00:40.066Z,84.53
2022-10-07T05:01:40.098Z,83.44
2022-10-07T05:02:39.945Z,83.54
2022-10-07T05:03:39.932Z,83.44
2022-10-07T05:04:39.916Z,83.85
2022-10-07T05:05:39.912Z,84.67
2022-10-07T05:06:39.964Z,84.47
2022-10-07T05:07:39.898Z,83.61
2022-10-07T05:08:39.875Z,83.70
2022-10-07T05:09:39.865Z,84.63
2022-10-07T05:10:39.898Z,84.53
2022-10-07T05:11:39.849Z,84.63
2022-10-07T05:12:39.898Z,84.32
2022-10-07T05:13:39.837Z,84.56
2022-10-07T05:14:39.809Z,84.42
2022-10-07T05:15:39.795Z,84.56
2022-10-07T05:16:39.829Z,84.53
2022-10-07T05:17:39.774Z,84.05
2022-10-07T05:18:39.800Z,83.23
2022-10-07T05:19:39.871Z,83.50
2022-10-07T05:20:39.743Z,82.78
2022-10-07T05:21:39.734Z,83.09
2022-10-07T05:22:39.724Z,83.09
2022-10-07T05:23:39.757Z,83.09
2022-10-07T05:24:39.783Z,83.09
2022-10-07T05:25:39.697Z,82.17
2022-10-07T05:26:39.702Z,82.68
2022-10-07T05:27:39.664Z,83.40
2022-10-07T05:28:39.756Z,83.29
2022-10-07T05:29:39.646Z,83.61
2022-10-07T05:30:39.678Z,83.50
2022-10-07T05:31:39.695Z,83.70
2022-10-07T05:32:39.617Z,83.29
2022-10-07T05:33:39.613Z,84.67
2022-10-07T05:34:39.599Z,83.81
2022-10-07T05:35:39.583Z,83.85
2022-10-07T05:36:39.656Z,83.91
2022-10-07T05:37:39.563Z,84.22
2022-10-07T05:38:39.546Z,83.75
2022-10-07T05:39:39.542Z,84.67
2022-10-07T05:40:39.524Z,83.81
2022-10-07T05:41:45.378Z,83.40
2022-10-07T05:42:40.539Z,83.81
2022-10-07T05:43:39.549Z,83.81
2022-10-07T05:44:39.482Z,83.81
2022-10-07T05:45:39.527Z,83.81
2022-10-07T05:46:39.458Z,84.01
2022-10-07T05:47:39.451Z,84.01
2022-10-07T05:48:39.766Z,83.29
2022-10-07T05:49:39.461Z,82.68
2022-10-07T05:50:39.414Z,82.89
2022-10-07T05:51:39.417Z,83.61
2022-10-07T05:52:39.394Z,83.09
2022-10-07T05:53:39.383Z,83.19
2022-10-07T05:54:39.383Z,83.29
2022-10-07T05:55:40.231Z,83.09
2022-10-07T05:56:39.351Z,82.57
2022-10-07T05:57:39.350Z,83.05
2022-10-07T05:58:39.367Z,83.09
2022-10-07T05:59:39.321Z,83.61
2022-10-07T06:00:39.309Z,84.53
2022-10-07T06:01:39.416Z,83.91
2022-10-07T06:02:39.458Z,84.53
2022-10-07T06:03:39.273Z,83.70
2022-10-07T06:04:39.271Z,83.81
2022-10-07T06:05:39.256Z,84.84
2022-10-07T06:06:39.257Z,84.74
2022-10-07T06:07:39.284Z,83.91
2022-10-07T06:08:39.229Z,83.40
2022-10-07T06:09:39.209Z,83.29
2022-10-07T06:10:39.269Z,83.09
2022-10-07T06:11:39.187Z,83.40
2022-10-07T06:12:39.391Z,83.09
2022-10-07T06:13:39.183Z,82.89
2022-10-07T06:14:39.192Z,82.89
2022-10-07T06:15:39.145Z,83.40
2022-10-07T06:16:39.235Z,83.29
2022-10-07T06:17:39.118Z,83.29
2022-10-07T06:18:39.107Z,82.75
2022-10-07T06:19:39.173Z,82.33
2022-10-07T06:20:39.102Z,82.43
2022-10-07T06:21:39.081Z,82.47
2022-10-07T06:22:39.068Z,82.03
2022-10-07T06:23:39.056Z,81.62
2022-10-07T06:24:39.055Z,82.27
2022-10-07T06:25:39.041Z,82.84
2022-10-07T06:26:39.023Z,82.75
2022-10-07T06:27:39.012Z,83.36
2022-10-07T06:28:39.112Z,82.75
2022-10-07T06:29:39.004Z,82.95
2022-10-07T06:30:39.087Z,82.68
2022-10-07T06:31:39.025Z,83.77
2022-10-07T06:32:38.957Z,82.99
2022-10-07T06:33:38.961Z,82.64
2022-10-07T06:34:38.933Z,82.75
2022-10-07T06:35:38.973Z,82.95
2022-10-07T06:36:38.909Z,82.64
2022-10-07T06:37:38.908Z,82.64
2022-10-07T06:38:38.951Z,82.33
2022-10-07T06:39:38.878Z,82.33
2022-10-07T06:40:38.868Z,82.33
2022-10-07T06:41:39.065Z,82.84
2022-10-07T06:42:38.846Z,83.15
2022-10-07T06:43:38.855Z,81.10
2022-10-07T06:44:38.822Z,80.07
2022-10-07T06:45:38.930Z,79.87
2022-10-07T06:46:38.824Z,79.73
2022-10-07T06:47:38.799Z,79.42
2022-10-07T06:48:38.779Z,79.93
2022-10-07T06:49:38.831Z,79.93
2022-10-07T06:50:38.759Z,78.91
2022-10-07T06:51:38.750Z,78.77
2022-10-07T06:52:42.626Z,77.47
2022-10-07T06:53:38.723Z,75.10
2022-10-07T06:54:38.712Z,74.97
2022-10-07T06:55:38.702Z,72.86
2022-10-07T06:56:38.692Z,71.87
2022-10-07T06:57:45.655Z,71.94
2022-10-07T06:58:39.736Z,71.77
2022-10-07T06:59:38.659Z,70.01
2022-10-07T07:00:38.701Z,69.49
2022-10-07T07:01:38.713Z,67.63
2022-10-07T07:02:38.850Z,66.52
2022-10-07T07:03:38.630Z,65.60
2022-10-07T07:04:38.672Z,65.70
2022-10-07T07:05:41.431Z,65.70
2022-10-07T07:06:39.583Z,67.19
2022-10-07T07:07:38.572Z,70.52
2022-10-07T07:08:38.578Z,69.40
2022-10-07T07:09:38.549Z,68.88
2022-10-07T07:10:38.542Z,71.09
2022-10-07T07:11:38.525Z,70.79
2022-10-07T07:12:38.521Z,70.25
2022-10-07T07:13:40.296Z,69.33
2022-10-07T07:14:38.515Z,68.52
2022-10-07T07:15:38.484Z,70.31
2022-10-07T07:16:38.517Z,69.30
2022-10-07T07:17:38.468Z,68.08
2022-10-07T07:18:38.481Z,70.76
2022-10-07T07:19:38.439Z,70.45
2022-10-07T07:20:38.436Z,68.70
2022-10-07T07:21:38.434Z,69.81
2022-10-07T07:22:38.508Z,69.10
2022-10-07T07:23:38.396Z,68.22
2022-10-07T07:24:38.399Z,68.52
2022-10-07T07:25:38.376Z,67.13
2022-10-07T07:26:38.363Z,67.68
2022-10-07T07:27:38.354Z,67.55
2022-10-07T07:28:38.416Z,67.71
2022-10-07T07:29:38.340Z,67.24
2022-10-07T07:30:38.364Z,67.61
2022-10-07T07:31:38.313Z,69.06
2022-10-07T07:32:38.297Z,67.33
2022-10-07T07:33:38.287Z,68.05
2022-10-07T07:34:38.535Z,68.52
2022-10-07T07:35:38.266Z,67.41
2022-10-07T07:36:38.257Z,68.12
2022-10-07T07:37:38.245Z,64.50
2022-10-07T07:38:38.236Z,64.20
2022-10-07T07:39:38.227Z,63.79
2022-10-07T07:40:38.258Z,62.57
2022-10-07T07:41:38.199Z,60.65
2022-10-07T07:42:38.189Z,60.82
2022-10-07T07:43:38.178Z,62.41
2022-10-07T07:44:38.167Z,62.24
2022-10-07T07:45:38.260Z,59.41
2022-10-07T07:46:38.204Z,59.27
2022-10-07T07:47:38.136Z,58.87
2022-10-07T07:48:38.123Z,59.10
2022-10-07T07:49:38.115Z,60.42
2022-10-07T07:50:38.159Z,60.72
2022-10-07T07:51:38.100Z,61.91
2022-10-07T07:52:38.086Z,61.71
2022-10-07T07:53:38.070Z,63.50
2022-10-07T07:54:38.117Z,64.04
2022-10-07T07:55:38.048Z,62.26
2022-10-07T07:56:38.047Z,63.54
2022-10-07T07:57:38.027Z,61.08
2022-10-07T07:58:38.014Z,62.34
2022-10-07T07:59:38.013Z,60.39
2022-10-07T08:00:38.007Z,61.36
2022-10-07T08:01:38.021Z,62.90
2022-10-07T08:02:38.038Z,64.59
2022-10-07T08:03:37.959Z,64.52
2022-10-07T08:04:37.952Z,62.12
2022-10-07T08:05:37.950Z,62.90
2022-10-07T08:06:37.955Z,59.64
2022-10-07T08:07:37.916Z,59.64
2022-10-07T08:08:37.917Z,61.56
2022-10-07T08:09:37.906Z,62.16
2022-10-07T08:10:37.886Z,62.27
2022-10-07T08:11:37.909Z,61.13
2022-10-07T08:12:37.862Z,62.04
2022-10-07T08:13:37.852Z,61.63
2022-10-07T08:14:37.873Z,62.90
2022-10-07T08:15:37.865Z,62.23
2022-10-07T08:16:37.819Z,61.88
2022-10-07T08:17:37.883Z,62.18
2022-10-07T08:18:37.796Z,62.46
2022-10-07T08:19:37.788Z,63.27
2022-10-07T08:20:37.775Z,62.19
2022-10-07T08:21:37.776Z,62.12
2022-10-07T08:22:37.878Z,62.27
2022-10-07T08:23:37.791Z,62.05
2022-10-07T08:24:37.736Z,63.54
2022-10-07T08:25:37.729Z,65.87
2022-10-07T08:26:37.710Z,61.24
2022-10-07T08:27:37.796Z,60.63
2022-10-07T08:28:37.743Z,61.82
2022-10-07T08:29:37.737Z,61.99
2022-10-07T08:30:37.665Z,59.90
2022-10-07T08:31:37.654Z,61.65
2022-10-07T08:32:37.644Z,65.19
2022-10-07T08:33:37.643Z,64.32
2022-10-07T08:34:37.631Z,63.34
2022-10-07T08:35:37.613Z,62.35
2022-10-07T08:36:37.598Z,63.31
2022-10-07T08:37:37.700Z,62.81
2022-10-07T08:38:37.607Z,65.20
2022-10-07T08:39:37.573Z,63.41
2022-10-07T08:40:37.555Z,62.12
2022-10-07T08:41:37.548Z,62.50
2022-10-07T08:42:37.534Z,63.21
2022-10-07T08:43:37.534Z,62.30
2022-10-07T08:44:37.513Z,65.23
2022-10-07T08:45:37.502Z,64.15
2022-10-07T08:46:37.598Z,63.57
2022-10-07T08:47:37.525Z,67.69
2022-10-07T08:48:37.469Z,64.79
2022-10-07T08:49:37.456Z,66.65
2022-10-07T08:50:37.473Z,63.70
2022-10-07T08:51:37.433Z,64.07
2022-10-07T08:52:37.425Z,62.41
2022-10-07T08:53:37.436Z,59.64
2022-10-07T08:54:37.428Z,62.24
2022-10-07T08:55:37.402Z,61.00
2022-10-07T08:56:37.392Z,62.34
2022-10-07T08:57:37.371Z,64.81
2022-10-07T08:58:37.361Z,60.13
2022-10-07T08:59:37.354Z,60.91
2022-10-07T09:00:37.350Z,58.69
2022-10-07T09:01:37.369Z,62.63
2022-10-07T09:02:37.332Z,60.77
2022-10-07T09:03:37.312Z,60.12
2022-10-07T09:04:37.295Z,63.52
2022-10-07T09:05:37.325Z,64.00
2022-10-07T09:06:37.284Z,60.25
2022-10-07T09:07:37.266Z,60.55
2022-10-07T09:08:37.262Z,62.98
2022-10-07T09:09:37.254Z,59.38
2022-10-07T09:10:37.257Z,57.56
2022-10-07T09:11:37.271Z,57.81
2022-10-07T09:12:37.222Z,56.50
2022-10-07T09:13:37.200Z,56.07
2022-10-07T09:14:37.188Z,58.52
2022-10-07T09:15:37.248Z,59.35
2022-10-07T09:16:37.168Z,58.14
2022-10-07T09:17:37.197Z,57.74
2022-10-07T09:18:37.154Z,60.03
2022-10-07T09:19:37.133Z,58.65
2022-10-07T09:20:37.128Z,59.66
2022-10-07T09:21:37.119Z,58.34
2022-10-07T09:22:37.103Z,60.44
2022-10-07T09:23:37.141Z,62.12
2022-10-07T09:24:37.144Z,60.81
2022-10-07T09:25:37.073Z,63.00
2022-10-07T09:26:37.316Z,59.77
2022-10-07T09:27:37.050Z,58.26
2022-10-07T09:28:37.161Z,57.86
2022-10-07T09:29:37.040Z,56.35
2022-10-07T09:30:37.015Z,58.01
2022-10-07T09:31:37.029Z,59.25
2022-10-07T09:32:36.994Z,57.74
2022-10-07T09:33:36.983Z,59.86
2022-10-07T09:34:36.978Z,57.31
2022-10-07T09:35:37.017Z,59.80
2022-10-07T09:36:36.961Z,59.00
2022-10-07T09:37:36.940Z,57.81
2022-10-07T09:38:36.931Z,58.45
2022-10-07T09:39:36.918Z,57.74
2022-10-07T09:40:36.920Z,59.08
2022-10-07T09:41:36.984Z,58.34
2022-10-07T09:42:36.913Z,56.81
2022-10-07T09:43:36.881Z,58.32
2022-10-07T09:44:36.865Z,57.78
2022-10-07T09:45:36.860Z,57.58
2022-10-07T09:46:36.949Z,59.40
2022-10-07T09:47:36.851Z,58.26
2022-10-07T09:48:36.834Z,60.71
2022-10-07T09:49:36.819Z,57.32
2022-10-07T09:50:36.852Z,56.15
2022-10-07T09:51:36.796Z,56.65
2022-10-07T09:52:36.785Z,57.12
2022-10-07T09:53:36.836Z,56.02
2022-10-07T09:54:36.758Z,58.44
2022-10-07T09:55:36.752Z,56.55
2022-10-07T09:56:36.739Z,56.82
2022-10-07T09:57:36.935Z,54.79
2022-10-07T09:58:36.769Z,54.55
2022-10-07T09:59:36.716Z,55.59
2022-10-07T10:00:36.695Z,55.69
2022-10-07T10:01:36.860Z,55.82
2022-10-07T10:02:36.807Z,59.99
2022-10-07T10:03:36.778Z,56.57
2022-10-07T10:04:36.656Z,57.48
2022-10-07T10:05:36.653Z,56.49
2022-10-07T10:06:36.628Z,59.86
2022-10-07T10:07:36.631Z,54.50
2022-10-07T10:08:36.617Z,56.40
2022-10-07T10:09:36.597Z,55.01
2022-10-07T10:10:36.605Z,55.01
2022-10-07T10:11:36.574Z,56.32
2022-10-07T10:12:38.214Z,55.71
2022-10-07T10:13:36.549Z,56.29
2022-10-07T10:14:36.603Z,55.87
2022-10-07T10:15:36.591Z,55.74
2022-10-07T10:16:36.524Z,53.70
2022-10-07T10:17:36.519Z,54.96
2022-10-07T10:18:36.584Z,53.92
2022-10-07T10:19:37.442Z,55.16
2022-10-07T10:20:36.473Z,56.63
2022-10-07T10:21:36.464Z,53.90
2022-10-07T10:22:36.509Z,54.50
2022-10-07T10:23:36.458Z,49.88
2022-10-07T10:24:36.429Z,52.32
2022-10-07T10:25:36.417Z,54.20
2022-10-07T10:26:36.408Z,52.62
2022-10-07T10:27:36.400Z,53.82
2022-10-07T10:28:36.480Z,52.47
2022-10-07T10:29:36.388Z,51.31
2022-10-07T10:30:36.390Z,54.02
2022-10-07T10:31:36.441Z,53.72
2022-10-07T10:32:36.344Z,53.82
2022-10-07T10:33:36.342Z,53.39
2022-10-07T10:34:36.376Z,52.34
2022-10-07T10:35:36.308Z,52.17
2022-10-07T10:36:36.304Z,52.17
2022-10-07T10:37:36.286Z,53.77
2022-10-07T10:38:36.276Z,55.33
2022-10-07T10:39:36.279Z,50.43
2022-10-07T10:40:36.331Z,54.02
2022-10-07T10:41:36.248Z,51.64
2022-10-07T10:42:36.235Z,52.04
2022-10-07T10:43:36.229Z,52.42
2022-10-07T10:44:36.215Z,54.33
2022-10-07T10:45:36.202Z,52.57
2022-10-07T10:46:36.316Z,51.29
2022-10-07T10:47:36.183Z,52.39
2022-10-07T10:48:36.172Z,53.88
2022-10-07T10:49:36.159Z,54.55
2022-10-07T10:50:36.155Z,54.88
2022-10-07T10:51:36.139Z,54.40
2022-10-07T10:52:36.137Z,53.92
2022-10-07T10:53:36.121Z,55.03
2022-10-07T10:54:36.106Z,55.00
2022-10-07T10:55:36.107Z,56.19
2022-10-07T10:56:36.083Z,55.63
2022-10-07T10:57:36.074Z,52.39
2022-10-07T10:58:36.063Z,50.43
2022-10-07T10:59:36.052Z,52.17
2022-10-07T11:00:36.047Z,51.31
2022-10-07T11:01:36.103Z,50.89
2022-10-07T11:02:36.135Z,53.40
2022-10-07T11:03:36.015Z,52.09
2022-10-07T11:04:36.053Z,51.26
2022-10-07T11:05:35.995Z,52.34
2022-10-07T11:06:35.980Z,54.65
2022-10-07T11:07:35.975Z,53.80
2022-10-07T11:08:38.420Z,52.69
2022-10-07T11:09:35.947Z,51.37
2022-10-07T11:10:35.940Z,52.49
2022-10-07T11:11:35.935Z,53.30
2022-10-07T11:12:35.911Z,52.22
2022-10-07T11:13:35.901Z,52.34
2022-10-07T11:14:35.892Z,55.13
2022-10-07T11:15:35.883Z,53.47
2022-10-07T11:16:35.924Z,53.70
2022-10-07T11:17:35.869Z,53.80
2022-10-07T11:18:35.874Z,53.77
2022-10-07T11:19:35.857Z,53.87
2022-10-07T11:20:36.683Z,54.22
2022-10-07T11:21:35.817Z,52.09
2022-10-07T11:22:35.857Z,52.09
2022-10-07T11:23:35.794Z,50.54
2022-10-07T11:24:35.784Z,51.54
2022-10-07T11:25:35.776Z,52.37
2022-10-07T11:26:35.784Z,52.32
2022-10-07T11:27:35.751Z,55.05
2022-10-07T11:28:35.760Z,51.69
2022-10-07T11:29:35.729Z,50.67
2022-10-07T11:30:35.768Z,47.86
2022-10-07T11:31:35.768Z,48.46
2022-10-07T11:32:35.705Z,47.64
2022-10-07T11:33:35.685Z,47.96
2022-10-07T11:34:35.739Z,47.94
2022-10-07T11:35:35.665Z,47.14
2022-10-07T11:36:35.655Z,47.94
2022-10-07T11:37:35.642Z,49.26
2022-10-07T11:38:35.639Z,49.51
2022-10-07T11:39:35.630Z,49.86
2022-10-07T11:40:35.659Z,49.33
2022-10-07T11:41:35.613Z,48.13
2022-10-07T11:42:35.587Z,48.93
2022-10-07T11:43:35.590Z,47.43
2022-10-07T11:44:35.567Z,49.01
2022-10-07T11:45:35.557Z,49.93
2022-10-07T11:46:35.629Z,50.63
2022-10-07T11:47:35.538Z,48.03
2022-10-07T11:48:35.534Z,47.53
2022-10-07T11:49:35.516Z,50.51
2022-10-07T11:50:35.528Z,48.08
2022-10-07T11:51:35.495Z,47.00
2022-10-07T11:52:38.271Z,48.49
2022-10-07T11:53:35.575Z,49.19
2022-10-07T11:54:35.459Z,48.46
2022-10-07T11:55:35.448Z,48.57
2022-10-07T11:56:35.438Z,49.24
2022-10-07T11:57:35.426Z,47.84
2022-10-07T11:58:35.421Z,49.04
2022-10-07T11:59:35.420Z,47.64
2022-10-07T12:00:35.394Z,46.08
2022-10-07T12:01:35.452Z,47.91
2022-10-07T12:02:35.557Z,47.99
2022-10-07T12:03:35.415Z,46.46
2022-10-07T12:04:35.419Z,47.46
2022-10-07T12:05:35.351Z,47.36
2022-10-07T12:06:35.355Z,47.66
2022-10-07T12:07:35.345Z,48.57
2022-10-07T12:08:35.308Z,45.26
2022-10-07T12:09:35.299Z,46.66
2022-10-07T12:10:35.289Z,47.86
2022-10-07T12:11:35.275Z,47.26
2022-10-07T12:12:35.265Z,47.66
2022-10-07T12:13:35.264Z,49.04
2022-10-07T12:14:35.242Z,47.46
2022-10-07T12:15:35.249Z,47.66
2022-10-07T12:16:35.279Z,48.64
2022-10-07T12:17:35.209Z,45.54
2022-10-07T12:18:35.197Z,44.82
2022-10-07T12:19:35.189Z,45.39
2022-10-07T12:20:35.189Z,46.92
2022-10-07T12:21:35.176Z,50.20
2022-10-07T12:22:35.202Z,46.14
2022-10-07T12:23:35.157Z,48.57
2022-10-07T12:24:35.135Z,47.46
2022-10-07T12:25:35.126Z,49.57
2022-10-07T12:26:35.125Z,48.46
2022-10-07T12:27:35.103Z,48.24
2022-10-07T12:28:35.318Z,47.46
2022-10-07T12:29:35.082Z,46.48
2022-10-07T12:30:35.068Z,47.08
2022-10-07T12:31:35.125Z,48.99
2022-10-07T12:32:35.053Z,47.58
2022-10-07T12:33:35.036Z,50.07
2022-10-07T12:34:35.065Z,50.39
2022-10-07T12:35:35.040Z,48.66
2022-10-07T12:36:35.003Z,51.32
2022-10-07T12:37:34.995Z,50.20
2022-10-07T12:38:35.003Z,48.22
2022-10-07T12:39:34.971Z,47.84
2022-10-07T12:40:34.990Z,48.66
2022-10-07T12:41:38.998Z,47.84
2022-10-07T12:42:35.942Z,49.16
2022-10-07T12:43:34.935Z,49.74
2022-10-07T12:44:34.918Z,50.52
2022-10-07T12:45:34.949Z,50.99
2022-10-07T12:46:34.928Z,46.44
2022-10-07T12:47:34.895Z,48.94
2022-10-07T12:48:34.877Z,50.34
2022-10-07T12:49:34.864Z,50.46
2022-10-07T12:50:34.865Z,49.07
2022-10-07T12:51:34.842Z,50.76
2022-10-07T12:52:34.841Z,51.57